Time;durP1;ratioP1;P1;durP2;ratioP2;P2;SDS_P1;SDS_P2;PMS_P1;PMS_P2;Temp;Humidity;BMP_temperature;BMP_pressure;BME280_temperature;BME280_humidity;BME280_pressure;Samples;Min_cycle;Max_cycle;Signal;HPM_P1;HPM_P2
2023/08/18 00:00:15;;;;;;;1.75;1.33;;;20.50;76.60;;;;;;5016113;28;20344;-76
2023/08/18 00:02:41;;;;;;;1.67;1.02;;;20.60;76.60;;;;;;5018028;28;20117;-73
2023/08/18 00:05:07;;;;;;;1.55;1.40;;;20.50;76.70;;;;;;5012704;28;20172;-76
2023/08/18 00:07:33;;;;;;;1.98;1.20;;;20.50;76.70;;;;;;5013631;28;20040;-76
2023/08/18 00:09:59;;;;;;;1.45;1.00;;;20.50;76.70;;;;;;5021986;28;20406;-75
2023/08/18 00:12:25;;;;;;;0.80;0.80;;;20.50;76.70;;;;;;5012967;28;20486;-75
2023/08/18 00:14:52;;;;;;;1.23;1.13;;;20.50;76.70;;;;;;5012343;28;20030;-76
2023/08/18 00:17:17;;;;;;;1.08;1.00;;;20.50;76.70;;;;;;5015750;28;20036;-76
2023/08/18 00:19:44;;;;;;;0.93;0.80;;;20.40;76.80;;;;;;5012655;28;20033;-76
2023/08/18 00:22:10;;;;;;;0.85;0.82;;;20.40;76.80;;;;;;5015301;28;20033;-76
2023/08/18 00:24:35;;;;;;;1.80;1.35;;;20.40;76.80;;;;;;5016425;28;20036;-76
2023/08/18 00:27:02;;;;;;;1.10;0.90;;;20.40;77.40;;;;;;5009857;28;20038;-75
2023/08/18 00:29:28;;;;;;;1.00;0.93;;;20.40;76.80;;;;;;5009998;28;20035;-76
2023/08/18 00:31:53;;;;;;;1.40;1.25;;;20.40;76.80;;;;;;5008300;28;20477;-76
2023/08/18 00:34:19;;;;;;;1.55;1.02;;;20.40;76.80;;;;;;5013416;28;20075;-74
2023/08/18 00:36:44;;;;;;;0.93;0.80;;;20.40;76.90;;;;;;5013928;28;20038;-73
2023/08/18 00:39:10;;;;;;;1.23;0.80;;;20.40;76.80;;;;;;5011214;28;20059;-74
2023/08/18 00:41:36;;;;;;;1.25;0.85;;;20.40;76.80;;;;;;5009808;28;20037;-74
2023/08/18 00:44:02;;;;;;;0.80;0.80;;;20.40;76.80;;;;;;5015527;28;20374;-72
2023/08/18 00:46:29;;;;;;;3.20;0.95;;;20.40;76.80;;;;;;5010015;28;20466;-72
2023/08/18 00:48:58;;;;;;;1.45;0.73;;;20.40;76.80;;;;;;5012662;28;20037;-72
2023/08/18 00:51:24;;;;;;;1.17;1.08;;;20.40;76.80;;;;;;5017331;28;20030;-71
2023/08/18 00:53:50;;;;;;;1.10;1.02;;;20.40;76.80;;;;;;5012458;28;20088;-71
2023/08/18 00:56:16;;;;;;;1.35;0.68;;;20.40;76.80;;;;;;5031743;28;20029;-71
2023/08/18 00:58:42;;;;;;;0.93;0.93;;;20.30;76.80;;;;;;5014897;28;20963;-72
2023/08/18 01:01:08;;;;;;;0.65;0.65;;;20.30;76.90;;;;;;5012254;28;20030;-72
2023/08/18 01:03:34;;;;;;;1.55;0.82;;;20.30;77.10;;;;;;5012139;28;20046;-71
2023/08/18 01:06:00;;;;;;;1.65;1.13;;;20.30;77.10;;;;;;5009752;28;20121;-71
2023/08/18 01:08:26;;;;;;;1.73;1.08;;;20.30;77.10;;;;;;5010078;28;20437;-72
2023/08/18 01:11:16;;;;;;;1.40;0.73;;;20.30;77.10;;;;;;5022334;28;20404;-72
2023/08/18 01:13:57;;;;;;;0.98;0.90;;;20.20;77.00;;;;;;5028222;28;20033;-72
2023/08/18 01:16:27;;;;;;;1.08;0.85;;;20.20;77.20;;;;;;5012519;28;20033;-72
2023/08/18 01:18:53;;;;;;;1.67;1.27;;;20.20;77.20;;;;;;5011783;28;20412;-72
2023/08/18 01:21:24;;;;;;;0.95;0.82;;;20.20;77.30;;;;;;5014959;28;20248;-74
2023/08/18 01:23:50;;;;;;;1.07;0.80;;;20.10;77.30;;;;;;5015897;28;20041;-73
2023/08/18 01:26:19;;;;;;;1.40;0.93;;;20.10;77.30;;;;;;5012275;28;20287;-74
2023/08/18 01:28:45;;;;;;;6.47;1.45;;;20.10;77.20;;;;;;5016239;28;20408;-74
2023/08/18 01:31:15;;;;;;;1.60;1.10;;;20.10;77.30;;;;;;5010485;28;20060;-73
2023/08/18 01:33:49;;;;;;;2.75;1.00;;;20.10;77.40;;;;;;5013279;28;20064;-74
2023/08/18 01:36:22;;;;;;;2.08;1.20;;;20.10;77.40;;;;;;5015803;28;20129;-73
2023/08/18 01:38:50;;;;;;;0.70;0.65;;;20.10;77.40;;;;;;5003163;28;20475;-73
2023/08/18 01:41:26;;;;;;;0.82;0.75;;;20.10;77.50;;;;;;5010847;28;20026;-73
2023/08/18 01:43:52;;;;;;;0.75;0.70;;;20.10;77.50;;;;;;5009944;28;20026;-73
2023/08/18 01:46:18;;;;;;;0.82;0.80;;;20.10;77.60;;;;;;5012692;28;20518;-72
2023/08/18 01:48:43;;;;;;;2.22;1.20;;;20.10;77.50;;;;;;5012493;28;20038;-72
2023/08/18 01:51:09;;;;;;;0.73;0.73;;;20.10;77.50;;;;;;5006641;28;20405;-71
2023/08/18 01:53:35;;;;;;;1.70;1.40;;;20.10;77.40;;;;;;5013245;28;20088;-71
2023/08/18 01:56:02;;;;;;;1.00;0.80;;;20.00;77.40;;;;;;5016348;28;20065;-75
2023/08/18 01:58:29;;;;;;;1.17;0.93;;;20.10;77.50;;;;;;5016707;28;20034;-72
2023/08/18 02:00:58;;;;;;;0.90;0.88;;;20.10;77.50;;;;;;5010475;28;20054;-73
2023/08/18 02:03:25;;;;;;;1.85;1.33;;;20.10;77.40;;;;;;5014197;28;20034;-73
2023/08/18 02:05:56;;;;;;;1.20;0.88;;;20.00;77.50;;;;;;5011553;28;20034;-73
2023/08/18 02:08:22;;;;;;;1.02;0.95;;;20.00;77.60;;;;;;5014873;28;20037;-74
2023/08/18 02:10:47;;;;;;;1.30;1.00;;;20.00;77.70;;;;;;5015704;28;20046;-73
2023/08/18 02:13:14;;;;;;;0.85;0.80;;;20.00;77.70;;;;;;5010369;28;20129;-73
2023/08/18 02:15:39;;;;;;;0.80;0.73;;;20.00;77.70;;;;;;4993871;28;20045;-73
2023/08/18 02:18:05;;;;;;;2.17;1.10;;;20.00;77.70;;;;;;5019057;28;20381;-71
2023/08/18 02:20:32;;;;;;;1.95;1.65;;;19.90;77.60;;;;;;5012219;28;20079;-72
2023/08/18 02:22:57;;;;;;;1.00;0.90;;;20.00;77.60;;;;;;5015391;28;20037;-72
2023/08/18 02:25:23;;;;;;;1.27;0.75;;;20.00;77.60;;;;;;5010474;28;20041;-72
2023/08/18 02:27:49;;;;;;;1.25;1.10;;;20.00;77.70;;;;;;5016421;28;20038;-72
2023/08/18 02:30:15;;;;;;;1.38;1.10;;;19.90;77.70;;;;;;5030353;28;20026;-72
2023/08/18 02:32:41;;;;;;;1.15;0.82;;;20.00;77.70;;;;;;5010913;28;20030;-72
2023/08/18 02:35:07;;;;;;;0.88;0.82;;;19.90;77.60;;;;;;5011084;28;20029;-74
2023/08/18 02:37:33;;;;;;;1.45;1.00;;;20.00;77.80;;;;;;5010294;28;20085;-74
2023/08/18 02:39:59;;;;;;;1.10;0.90;;;19.90;77.80;;;;;;5008711;28;20191;-74
2023/08/18 02:42:24;;;;;;;2.53;1.17;;;19.90;77.80;;;;;;5008236;28;21491;-74
2023/08/18 02:44:50;;;;;;;1.98;0.90;;;19.90;77.70;;;;;;5011852;28;20472;-76
2023/08/18 02:47:16;;;;;;;2.22;1.27;;;19.90;77.80;;;;;;5008012;28;20042;-74
2023/08/18 02:49:42;;;;;;;0.80;0.80;;;19.90;77.90;;;;;;5018062;28;20029;-74
2023/08/18 02:52:09;;;;;;;1.20;1.10;;;19.90;77.90;;;;;;5014404;28;20045;-74
2023/08/18 02:54:35;;;;;;;1.30;1.00;;;19.90;77.90;;;;;;5008462;28;20112;-74
2023/08/18 02:57:01;;;;;;;1.25;1.00;;;19.90;77.90;;;;;;5011549;28;20085;-74
2023/08/18 02:59:27;;;;;;;2.67;1.73;;;19.90;77.90;;;;;;5012211;28;20381;-74
2023/08/18 03:01:53;;;;;;;1.10;0.80;;;19.90;77.90;;;;;;5013353;28;20049;-74
2023/08/18 03:04:18;;;;;;;1.10;1.00;;;19.90;78.00;;;;;;5012504;28;20022;-74
2023/08/18 03:06:44;;;;;;;1.13;0.93;;;19.90;78.00;;;;;;5003056;28;20022;-75
2023/08/18 03:09:10;;;;;;;2.95;1.13;;;19.90;78.00;;;;;;5013387;28;20061;-74
2023/08/18 03:11:35;;;;;;;1.42;1.17;;;19.90;77.90;;;;;;5009370;28;20037;-74
2023/08/18 03:14:01;;;;;;;2.60;0.90;;;19.90;77.90;;;;;;5017084;28;20732;-74
2023/08/18 03:16:27;;;;;;;1.30;1.20;;;19.90;78.00;;;;;;5020056;28;20061;-74
2023/08/18 03:18:53;;;;;;;1.88;1.08;;;19.90;78.10;;;;;;4992669;28;20034;-74
2023/08/18 03:21:18;;;;;;;2.63;1.45;;;19.90;78.10;;;;;;5010503;28;20046;-74
2023/08/18 03:23:44;;;;;;;2.25;0.93;;;19.90;78.10;;;;;;4995447;28;20049;-74
2023/08/18 03:26:13;;;;;;;1.15;1.00;;;19.90;78.10;;;;;;5013108;28;20037;-74
2023/08/18 03:28:38;;;;;;;1.13;1.02;;;19.90;78.10;;;;;;5009373;28;20440;-74
2023/08/18 03:31:06;;;;;;;3.40;1.52;;;19.90;78.00;;;;;;5023657;28;20030;-74
2023/08/18 03:33:32;;;;;;;2.78;1.42;;;19.90;78.00;;;;;;5016522;28;20037;-75
2023/08/18 03:35:58;;;;;;;1.45;1.27;;;20.00;78.10;;;;;;5028342;28;20054;-75
2023/08/18 03:38:25;;;;;;;1.92;1.42;;;19.90;78.10;;;;;;5014073;28;20037;-75
2023/08/18 03:40:58;;;;;;;1.00;0.93;;;19.90;78.10;;;;;;5016875;28;20110;-74
2023/08/18 03:43:23;;;;;;;1.23;1.10;;;19.90;78.20;;;;;;5011983;28;20048;-74
2023/08/18 03:45:49;;;;;;;2.08;1.80;;;19.90;78.20;;;;;;5027277;28;20033;-75
2023/08/18 03:48:15;;;;;;;1.60;1.35;;;19.90;78.20;;;;;;4995484;28;20065;-74
2023/08/18 03:50:41;;;;;;;1.90;1.42;;;19.90;78.20;;;;;;5014942;28;20084;-75
2023/08/18 03:53:07;;;;;;;1.73;1.30;;;19.90;78.20;;;;;;5019097;28;20034;-75
2023/08/18 03:55:33;;;;;;;1.92;1.73;;;19.90;78.30;;;;;;5012981;28;20037;-75
2023/08/18 03:57:59;;;;;;;1.60;1.35;;;19.80;78.30;;;;;;5014691;28;20018;-74
2023/08/18 04:00:24;;;;;;;1.55;1.10;;;19.80;78.30;;;;;;4999018;28;20018;-75
2023/08/18 04:02:50;;;;;;;1.45;1.35;;;19.80;78.30;;;;;;5013593;28;20405;-75
2023/08/18 04:05:16;;;;;;;2.67;1.98;;;19.80;78.30;;;;;;5010984;28;20033;-75
2023/08/18 04:07:51;;;;;;;4.13;2.05;;;19.80;78.30;;;;;;5020155;28;20038;-74
2023/08/18 04:10:17;;;;;;;2.60;1.67;;;19.90;78.30;;;;;;5012726;28;20041;-75
2023/08/18 04:12:43;;;;;;;3.58;1.70;;;19.80;78.40;;;;;;5034075;28;20038;-74
2023/08/18 04:15:09;;;;;;;3.63;1.75;;;19.80;78.40;;;;;;5000581;28;20116;-73
2023/08/18 04:17:34;;;;;;;1.95;1.48;;;19.80;78.40;;;;;;5010547;28;20470;-73
2023/08/18 04:20:00;;;;;;;2.20;1.80;;;19.80;78.40;;;;;;5016546;28;20025;-72
2023/08/18 04:22:26;;;;;;;2.83;2.20;;;19.80;78.40;;;;;;5010622;28;20034;-73
2023/08/18 04:24:52;;;;;;;2.25;1.48;;;19.80;78.50;;;;;;5006163;28;20080;-72
2023/08/18 04:27:17;;;;;;;2.75;1.80;;;19.80;78.50;;;;;;5010576;28;20038;-72
2023/08/18 04:29:47;;;;;;;1.55;1.40;;;19.80;78.60;;;;;;5015551;28;20100;-74
2023/08/18 04:32:13;;;;;;;1.90;1.63;;;19.80;78.70;;;;;;5005776;28;20486;-73
2023/08/18 04:34:51;;;;;;;3.15;1.95;;;19.80;78.70;;;;;;5014309;28;20026;-73
2023/08/18 04:37:16;;;;;;;2.38;1.50;;;19.80;78.70;;;;;;5017617;28;20053;-73
2023/08/18 04:39:56;;;;;;;2.72;1.50;;;19.70;78.70;;;;;;5014700;28;20406;-73
2023/08/18 04:42:22;;;;;;;5.03;1.98;;;19.80;78.70;;;;;;5011988;28;20089;-73
2023/08/18 04:44:47;;;;;;;5.38;2.10;;;19.80;78.80;;;;;;5015769;28;20542;-73
2023/08/18 04:47:13;;;;;;;2.40;1.83;;;19.80;78.90;;;;;;5013187;28;20034;-73
2023/08/18 04:49:39;;;;;;;3.35;2.15;;;19.70;79.00;;;;;;5018581;28;20041;-73
2023/08/18 04:52:07;;;;;;;5.75;2.38;;;19.80;79.00;;;;;;5010796;28;20083;-73
2023/08/18 04:54:33;;;;;;;2.63;1.95;;;19.80;79.00;;;;;;5014152;28;20364;-73
2023/08/18 04:56:59;;;;;;;2.75;2.08;;;19.80;79.00;;;;;;5021037;28;20034;-73
2023/08/18 04:59:28;;;;;;;3.10;1.60;;;19.80;79.00;;;;;;5007687;28;20033;-73
2023/08/18 05:01:53;;;;;;;2.20;1.60;;;19.80;79.00;;;;;;5029397;28;20026;-73
2023/08/18 05:04:19;;;;;;;4.57;3.15;;;19.70;78.90;;;;;;5009161;28;20041;-74
2023/08/18 05:06:45;;;;;;;2.30;1.80;;;19.80;79.00;;;;;;5015680;28;20030;-73
2023/08/18 05:09:11;;;;;;;4.53;3.00;;;19.80;79.00;;;;;;5006358;28;20133;-74
2023/08/18 05:11:36;;;;;;;3.45;1.83;;;19.80;79.10;;;;;;5009605;28;20018;-73
2023/08/18 05:14:02;;;;;;;3.00;2.30;;;19.80;79.10;;;;;;5026193;28;20444;-74
2023/08/18 05:16:28;;;;;;;4.47;2.17;;;19.80;79.10;;;;;;5013932;28;20100;-74
2023/08/18 05:18:54;;;;;;;5.75;2.30;;;19.80;79.10;;;;;;5010891;28;20473;-74
2023/08/18 05:22:15;;;;;;;3.55;2.30;;;19.80;79.10;;;;;;5011730;28;20384;-74
2023/08/18 05:24:41;;;;;;;4.72;2.33;;;19.80;79.10;;;;;;4975737;28;20046;-74
2023/08/18 05:27:06;;;;;;;5.80;2.40;;;19.80;79.20;;;;;;5000360;28;20072;-73
2023/08/18 05:29:32;;;;;;;2.63;2.05;;;19.80;79.10;;;;;;5025403;28;20499;-74
2023/08/18 05:31:58;;;;;;;2.50;1.70;;;19.90;79.00;;;;;;5009736;28;20048;-74
2023/08/18 05:34:44;;;;;;;2.95;2.10;;;19.90;79.00;;;;;;5012345;28;20038;-74
2023/08/18 05:37:11;;;;;;;4.90;2.88;;;19.90;78.90;;;;;;4990279;28;20484;-74
2023/08/18 05:39:36;;;;;;;3.28;1.90;;;19.90;79.00;;;;;;5012474;28;20117;-74
2023/08/18 05:42:02;;;;;;;3.03;2.08;;;19.90;79.00;;;;;;5013612;28;20109;-74
2023/08/18 05:44:28;;;;;;;3.22;1.95;;;19.90;79.00;;;;;;5021410;28;20025;-74
2023/08/18 05:46:54;;;;;;;6.70;2.55;;;19.90;79.00;;;;;;5013679;28;20045;-74
2023/08/18 05:49:20;;;;;;;2.88;1.73;;;20.00;79.10;;;;;;5014116;28;20030;-73
2023/08/18 05:51:45;;;;;;;5.88;2.33;;;20.00;79.00;;;;;;5017743;28;20037;-73
2023/08/18 05:54:11;;;;;;;4.90;2.22;;;20.00;78.90;;;;;;4992119;28;20555;-74
2023/08/18 05:56:37;;;;;;;3.70;1.83;;;20.00;78.90;;;;;;5035787;28;20034;-74
2023/08/18 05:59:04;;;;;;;2.90;1.80;;;20.10;78.90;;;;;;5012561;28;20029;-73
2023/08/18 06:01:30;;;;;;;8.27;2.42;;;20.10;78.90;;;;;;5016433;28;20489;-73
2023/08/18 06:03:55;;;;;;;4.65;2.50;;;20.10;78.90;;;;;;5009237;28;20044;-73
2023/08/18 06:06:21;;;;;;;2.80;1.95;;;20.10;78.90;;;;;;5010096;28;20045;-74
2023/08/18 06:08:47;;;;;;;3.13;2.08;;;20.10;78.90;;;;;;5031105;28;20022;-74
2023/08/18 06:11:15;;;;;;;2.90;1.98;;;20.20;78.90;;;;;;5008219;28;20041;-72
2023/08/18 06:13:40;;;;;;;2.92;2.08;;;20.20;78.80;;;;;;5012128;28;20040;-74
2023/08/18 06:16:06;;;;;;;4.18;2.20;;;20.20;78.70;;;;;;5013499;28;20022;-74
2023/08/18 06:18:33;;;;;;;4.07;2.38;;;20.30;78.80;;;;;;5009410;28;20033;-74
2023/08/18 06:20:58;;;;;;;3.25;1.92;;;20.20;78.80;;;;;;5012695;28;20026;-74
2023/08/18 06:23:24;;;;;;;2.53;1.80;;;20.30;78.90;;;;;;4999043;28;20038;-74
2023/08/18 06:25:50;;;;;;;1.90;1.63;;;20.30;78.90;;;;;;5010075;28;20121;-74
2023/08/18 06:28:16;;;;;;;3.42;2.03;;;20.40;78.80;;;;;;5012462;28;20058;-74
2023/08/18 06:30:41;;;;;;;3.13;2.20;;;20.40;78.80;;;;;;4989973;28;20093;-74
2023/08/18 06:33:08;;;;;;;3.83;1.98;;;20.40;78.70;;;;;;4992285;28;20507;-74
2023/08/18 06:35:33;;;;;;;4.47;2.78;;;20.50;78.60;;;;;;5017937;28;20120;-74
2023/08/18 06:37:59;;;;;;;3.58;1.85;;;20.50;78.70;;;;;;5009856;28;20136;-74
2023/08/18 06:40:25;;;;;;;3.30;2.25;;;20.50;78.70;;;;;;5016136;28;20061;-74
2023/08/18 06:42:50;;;;;;;3.83;2.80;;;20.50;78.70;;;;;;5019214;28;20053;-74
2023/08/18 06:45:16;;;;;;;2.63;2.17;;;20.50;78.70;;;;;;5014154;28;20030;-74
2023/08/18 06:47:42;;;;;;;6.18;2.13;;;20.60;78.70;;;;;;5014062;28;20113;-74
2023/08/18 06:50:09;;;;;;;2.45;1.65;;;20.60;78.70;;;;;;5014383;28;20033;-74
2023/08/18 06:52:35;;;;;;;4.50;2.47;;;20.60;78.60;;;;;;5014505;28;20575;-74
2023/08/18 06:55:03;;;;;;;8.35;2.83;;;20.60;78.60;;;;;;5008119;28;20121;-74
2023/08/18 06:57:29;;;;;;;2.95;2.03;;;20.70;78.50;;;;;;5010964;28;20038;-74
2023/08/18 06:59:55;;;;;;;3.75;1.92;;;20.80;78.40;;;;;;5006064;28;20076;-74
2023/08/18 07:02:21;;;;;;;3.30;2.00;;;20.90;78.20;;;;;;5013019;28;20073;-74
2023/08/18 07:04:46;;;;;;;2.50;1.83;;;21.00;78.10;;;;;;5012169;28;20021;-73
2023/08/18 07:07:12;;;;;;;2.05;1.75;;;21.10;77.90;;;;;;5006936;28;20030;-74
2023/08/18 07:09:38;;;;;;;2.65;1.70;;;21.10;77.80;;;;;;5010809;28;20054;-74
2023/08/18 07:12:04;;;;;;;2.40;1.33;;;21.10;77.90;;;;;;4993605;28;20037;-74
2023/08/18 07:14:29;;;;;;;1.90;1.30;;;21.10;77.90;;;;;;5007746;28;20430;-73
2023/08/18 07:16:55;;;;;;;2.45;1.60;;;21.10;78.00;;;;;;5007675;28;20056;-73
2023/08/18 07:19:21;;;;;;;1.40;1.30;;;21.10;78.00;;;;;;5003130;28;20027;-78
2023/08/18 07:21:47;;;;;;;3.05;1.83;;;21.10;77.90;;;;;;5012631;28;20076;-70
2023/08/18 07:24:12;;;;;;;2.78;1.95;;;21.10;78.00;;;;;;5024890;28;20108;-71
2023/08/18 07:26:38;;;;;;;3.65;2.35;;;21.20;78.00;;;;;;5022293;28;20030;-79
2023/08/18 07:29:04;;;;;;;1.88;1.45;;;21.20;77.90;;;;;;5011109;28;20520;-76
2023/08/18 07:31:30;;;;;;;1.50;1.05;;;21.30;77.80;;;;;;5014328;28;20866;-73
2023/08/18 07:33:57;;;;;;;4.10;2.30;;;21.30;77.70;;;;;;5009580;28;20112;-73
2023/08/18 07:36:23;;;;;;;2.03;1.30;;;21.30;77.70;;;;;;5019785;28;20529;-73
2023/08/18 07:38:49;;;;;;;2.30;1.70;;;21.30;78.20;;;;;;5007745;28;21311;-75
2023/08/18 07:41:14;;;;;;;2.63;1.33;;;21.30;77.60;;;;;;5010031;28;20022;-71
2023/08/18 07:43:40;;;;;;;3.60;2.33;;;21.30;77.60;;;;;;5011124;28;20026;-73
2023/08/18 07:46:05;;;;;;;2.47;1.63;;;21.40;77.70;;;;;;5011541;28;20056;-73
2023/08/18 07:48:31;;;;;;;4.57;2.47;;;21.40;77.50;;;;;;5011045;28;20033;-71
2023/08/18 07:50:57;;;;;;;1.58;1.40;;;21.50;77.50;;;;;;5006428;28;20053;-72
2023/08/18 07:53:23;;;;;;;2.58;1.77;;;21.50;77.40;;;;;;5017777;28;20029;-73
2023/08/18 07:55:48;;;;;;;1.67;1.30;;;21.60;77.40;;;;;;5012396;28;20033;-72
2023/08/18 07:58:14;;;;;;;3.28;2.38;;;21.70;77.40;;;;;;5014575;28;20022;-73
2023/08/18 08:00:41;;;;;;;1.58;1.30;;;21.70;77.10;;;;;;5022969;28;20034;-72
2023/08/18 08:03:07;;;;;;;3.15;1.95;;;21.70;77.10;;;;;;5013478;28;20038;-70
2023/08/18 08:05:32;;;;;;;2.55;1.88;;;21.70;77.20;;;;;;5012348;28;20037;-71
2023/08/18 08:07:58;;;;;;;2.17;1.85;;;21.80;77.20;;;;;;5017216;28;20065;-70
2023/08/18 08:10:24;;;;;;;1.92;1.52;;;21.90;77.10;;;;;;5013075;28;20098;-70
2023/08/18 08:12:50;;;;;;;1.65;1.38;;;22.00;77.00;;;;;;5018539;28;20087;-75
2023/08/18 08:15:16;;;;;;;2.13;1.95;;;22.10;76.90;;;;;;5019010;28;20041;-74
2023/08/18 08:17:42;;;;;;;2.80;2.30;;;22.20;76.70;;;;;;5008017;28;20409;-74
2023/08/18 08:20:15;;;;;;;2.55;1.92;;;22.20;76.60;;;;;;5016479;28;20025;-73
2023/08/18 08:22:42;;;;;;;3.65;2.00;;;22.20;76.40;;;;;;5019437;28;20468;-73
2023/08/18 08:25:08;;;;;;;1.90;1.55;;;22.20;76.50;;;;;;5013851;28;20354;-76
2023/08/18 08:27:34;;;;;;;2.67;1.55;;;22.20;76.60;;;;;;5012791;28;20157;-79
2023/08/18 08:30:00;;;;;;;2.55;1.60;;;22.20;76.60;;;;;;5014221;28;20136;-74
2023/08/18 08:32:26;;;;;;;3.67;1.63;;;22.30;76.60;;;;;;5011858;28;20039;-74
2023/08/18 08:34:52;;;;;;;2.10;1.65;;;22.30;76.50;;;;;;5007616;28;20034;-73
2023/08/18 08:37:18;;;;;;;3.55;1.52;;;22.40;76.50;;;;;;5006907;28;20057;-74
2023/08/18 08:39:44;;;;;;;3.15;1.45;;;22.40;76.50;;;;;;4992159;28;20085;-74
2023/08/18 08:42:10;;;;;;;2.33;1.63;;;22.40;76.40;;;;;;5014175;28;20397;-73
2023/08/18 08:44:37;;;;;;;2.65;1.58;;;22.40;76.50;;;;;;5001062;28;20037;-72
2023/08/18 08:47:03;;;;;;;3.17;1.52;;;22.50;76.40;;;;;;5005378;28;20054;-73
2023/08/18 08:49:34;;;;;;;3.85;2.15;;;22.50;76.30;;;;;;5006826;28;20100;-72
2023/08/18 08:52:06;;;;;;;3.65;2.00;;;22.50;76.30;;;;;;5009703;28;20212;-73
2023/08/18 08:54:36;;;;;;;2.45;1.73;;;22.40;76.20;;;;;;5012884;28;20030;-73
2023/08/18 08:57:05;;;;;;;3.30;1.75;;;22.50;76.40;;;;;;5005286;28;20499;-73
2023/08/18 08:59:31;;;;;;;3.40;1.90;;;22.50;76.50;;;;;;5010684;28;20507;-72
2023/08/18 09:01:57;;;;;;;2.28;1.70;;;22.60;76.50;;;;;;5010892;28;20550;-72
2023/08/18 09:04:23;;;;;;;5.05;2.42;;;22.60;76.40;;;;;;5020246;28;20057;-72
2023/08/18 09:06:48;;;;;;;3.15;2.35;;;22.60;76.20;;;;;;5004251;28;20033;-72
2023/08/18 09:09:14;;;;;;;4.53;2.00;;;22.70;76.20;;;;;;5003384;28;20029;-72
2023/08/18 09:11:47;;;;;;;4.15;2.08;;;22.70;76.10;;;;;;5006436;28;20036;-72
2023/08/18 09:14:16;;;;;;;3.13;1.80;;;22.70;76.20;;;;;;4998828;28;20038;-73
2023/08/18 09:16:45;;;;;;;2.78;1.88;;;22.70;76.30;;;;;;5006824;28;20026;-72
2023/08/18 09:19:14;;;;;;;2.10;1.55;;;22.70;76.30;;;;;;4998677;28;20034;-72
2023/08/18 09:21:41;;;;;;;2.22;1.55;;;22.70;76.30;;;;;;5002094;28;20400;-72
2023/08/18 09:24:07;;;;;;;3.90;1.60;;;22.80;76.20;;;;;;5010893;28;20036;-72
2023/08/18 09:26:33;;;;;;;2.72;1.60;;;22.90;76.00;;;;;;5006429;28;20029;-72
2023/08/18 09:28:59;;;;;;;3.35;2.38;;;23.00;75.70;;;;;;5027607;28;20030;-73
2023/08/18 09:31:25;;;;;;;4.72;1.55;;;23.10;75.60;;;;;;5005533;28;20033;-72
2023/08/18 09:33:51;;;;;;;3.28;2.00;;;23.20;75.50;;;;;;5009212;28;20030;-72
2023/08/18 09:36:18;;;;;;;2.70;1.40;;;23.40;75.30;;;;;;5013953;28;20033;-72
2023/08/18 09:38:44;;;;;;;1.80;1.20;;;23.60;75.00;;;;;;4996796;28;20409;-72
2023/08/18 09:41:11;;;;;;;4.10;1.60;;;23.80;74.50;;;;;;5026349;28;20030;-72
2023/08/18 09:43:38;;;;;;;2.40;1.80;;;23.90;74.10;;;;;;5017125;28;20030;-73
2023/08/18 09:46:04;;;;;;;2.95;1.73;;;24.10;73.90;;;;;;5007074;28;20500;-73
2023/08/18 09:48:35;;;;;;;2.15;1.65;;;24.30;73.80;;;;;;5009006;28;20157;-72
2023/08/18 09:51:01;;;;;;;1.67;1.25;;;24.40;73.30;;;;;;5010779;28;20037;-72
2023/08/18 09:53:31;;;;;;;1.60;1.50;;;24.50;73.00;;;;;;5016006;28;20033;-73
2023/08/18 09:56:12;;;;;;;2.25;1.65;;;24.60;72.90;;;;;;5014830;28;20014;-72
2023/08/18 09:58:46;;;;;;;1.75;1.45;;;24.70;72.70;;;;;;5010777;28;20086;-73
2023/08/18 10:01:15;;;;;;;1.83;1.23;;;24.80;72.60;;;;;;5010216;28;20022;-73
2023/08/18 10:03:42;;;;;;;2.20;1.85;;;24.90;72.50;;;;;;5022395;28;20377;-73
2023/08/18 10:06:09;;;;;;;3.80;2.45;;;25.10;71.80;;;;;;5007913;28;20475;-72
2023/08/18 10:08:35;;;;;;;2.38;1.60;;;25.10;71.50;;;;;;5014359;28;20026;-72
2023/08/18 10:11:01;;;;;;;2.50;2.05;;;25.20;71.60;;;;;;5012999;28;20117;-73
2023/08/18 10:13:30;;;;;;;1.65;1.40;;;25.30;71.50;;;;;;5015907;28;20045;-72
2023/08/18 10:15:56;;;;;;;2.53;1.70;;;25.30;71.50;;;;;;5015793;28;20905;-72
2023/08/18 10:18:23;;;;;;;2.17;1.60;;;25.40;71.30;;;;;;5010919;28;20105;-72
2023/08/18 10:20:53;;;;;;;3.42;1.90;;;25.60;71.10;;;;;;5010738;28;20397;-72
2023/08/18 10:23:22;;;;;;;2.92;1.67;;;25.70;70.70;;;;;;5009446;28;20363;-72
2023/08/18 10:25:52;;;;;;;2.85;1.85;;;25.70;70.60;;;;;;5001532;28;20034;-72
2023/08/18 10:28:19;;;;;;;4.10;1.75;;;25.90;70.50;;;;;;5012670;28;20044;-73
2023/08/18 10:30:57;;;;;;;1.40;1.10;;;26.10;70.40;;;;;;5008887;28;20032;-72
2023/08/18 10:33:35;;;;;;;2.50;1.60;;;26.20;70.10;;;;;;5000668;28;20072;-73
2023/08/18 10:36:04;;;;;;;3.13;1.35;;;26.30;69.60;;;;;;5006882;28;20051;-72
2023/08/18 10:38:30;;;;;;;3.05;1.80;;;26.30;69.60;;;;;;5007395;28;20045;-72
2023/08/18 10:40:56;;;;;;;2.45;1.45;;;26.40;69.50;;;;;;5014037;28;20495;-72
2023/08/18 10:43:25;;;;;;;4.05;1.85;;;26.60;69.30;;;;;;5017760;28;20025;-72
2023/08/18 10:45:56;;;;;;;2.67;1.70;;;26.60;68.90;;;;;;5008817;28;20469;-73
2023/08/18 10:48:22;;;;;;;4.20;1.90;;;26.70;69.00;;;;;;5001215;28;20034;-72
2023/08/18 10:50:48;;;;;;;1.98;1.42;;;26.80;68.30;;;;;;5001558;28;20041;-72
2023/08/18 10:53:15;;;;;;;2.78;1.92;;;26.90;68.50;;;;;;5005146;28;20038;-72
2023/08/18 10:55:45;;;;;;;2.55;2.10;;;27.00;68.40;;;;;;5009498;28;20090;-72
2023/08/18 10:58:12;;;;;;;1.45;1.35;;;27.10;68.30;;;;;;5003677;28;20022;-73
2023/08/18 11:00:39;;;;;;;1.73;1.35;;;27.20;68.10;;;;;;5003840;28;20037;-73
2023/08/18 11:03:07;;;;;;;2.78;1.85;;;27.30;68.00;;;;;;5003573;28;20050;-73
2023/08/18 11:05:33;;;;;;;3.95;2.25;;;27.40;67.50;;;;;;5006805;28;20651;-73
2023/08/18 11:08:04;;;;;;;1.35;1.20;;;27.50;67.50;;;;;;5007907;28;20036;-73
2023/08/18 11:10:29;;;;;;;1.73;1.38;;;27.60;67.40;;;;;;5009106;28;20124;-73
2023/08/18 11:12:57;;;;;;;1.50;1.35;;;27.70;67.00;;;;;;5007280;28;20121;-73
2023/08/18 11:15:24;;;;;;;1.42;1.25;;;27.80;67.70;;;;;;5010315;28;20028;-73
2023/08/18 11:17:50;;;;;;;1.55;1.40;;;28.00;67.10;;;;;;5006794;28;20038;-73
2023/08/18 11:20:16;;;;;;;1.15;1.05;;;28.10;66.80;;;;;;5010900;28;20041;-73
2023/08/18 11:22:53;;;;;;;7.60;2.05;;;28.20;66.50;;;;;;5011523;28;20486;-73
2023/08/18 11:25:24;;;;;;;3.22;2.38;;;28.30;65.80;;;;;;5012577;28;20030;-73
2023/08/18 11:27:52;;;;;;;3.13;1.92;;;28.20;65.00;;;;;;5021445;28;20045;-73
2023/08/18 11:30:19;;;;;;;2.25;1.50;;;28.20;65.20;;;;;;5017321;28;20063;-74
2023/08/18 11:32:45;;;;;;;1.67;1.50;;;28.30;65.60;;;;;;5013982;28;20500;-73
2023/08/18 11:35:13;;;;;;;2.38;1.90;;;28.40;65.30;;;;;;5010310;28;20037;-74
2023/08/18 11:37:44;;;;;;;3.15;2.38;;;28.50;65.20;;;;;;5013302;28;20042;-74
2023/08/18 11:40:12;;;;;;;2.80;2.20;;;28.50;64.10;;;;;;5009403;28;20030;-73
2023/08/18 11:42:45;;;;;;;2.33;1.85;;;28.50;64.70;;;;;;5018292;28;20026;-73
2023/08/18 11:45:15;;;;;;;1.38;1.20;;;28.60;64.60;;;;;;5019766;28;20034;-74
2023/08/18 11:47:44;;;;;;;1.55;1.30;;;28.70;64.40;;;;;;5029236;28;20524;-74
2023/08/18 11:50:13;;;;;;;3.03;1.98;;;28.90;64.20;;;;;;5013565;28;20033;-73
2023/08/18 11:52:43;;;;;;;2.22;1.80;;;29.00;64.00;;;;;;5012299;28;21249;-74
2023/08/18 11:55:09;;;;;;;1.77;1.40;;;29.00;63.80;;;;;;5026367;28;20018;-74
2023/08/18 11:57:40;;;;;;;2.25;1.40;;;29.20;63.90;;;;;;5013353;28;20033;-74
2023/08/18 12:00:13;;;;;;;3.30;2.00;;;29.30;63.50;;;;;;5009979;28;20485;-74
2023/08/18 12:02:48;;;;;;;2.13;1.50;;;29.40;62.80;;;;;;5002939;28;20117;-73
2023/08/18 12:05:22;;;;;;;2.50;1.73;;;29.50;63.00;;;;;;5007167;28;20026;-73
2023/08/18 12:07:51;;;;;;;1.83;1.63;;;29.60;62.50;;;;;;5003274;28;20045;-73
2023/08/18 12:10:17;;;;;;;2.10;1.60;;;29.70;62.50;;;;;;5003509;28;20120;-73
2023/08/18 12:12:43;;;;;;;2.05;1.70;;;29.80;61.90;;;;;;4993756;28;20125;-74
2023/08/18 12:15:09;;;;;;;2.10;1.73;;;29.70;62.00;;;;;;5010442;28;20409;-74
2023/08/18 12:17:34;;;;;;;1.60;1.50;;;29.70;62.30;;;;;;5013015;28;20830;-73
2023/08/18 12:20:00;;;;;;;2.67;1.80;;;29.70;62.00;;;;;;5009524;28;20038;-73
2023/08/18 12:22:26;;;;;;;2.58;1.55;;;29.80;62.10;;;;;;5017114;28;20033;-74
2023/08/18 12:24:51;;;;;;;1.52;1.38;;;29.90;61.90;;;;;;5014271;28;20030;-74
2023/08/18 12:27:18;;;;;;;1.48;1.35;;;30.10;61.90;;;;;;5019777;28;20029;-72
2023/08/18 12:29:43;;;;;;;4.35;1.70;;;30.30;61.70;;;;;;5014009;28;20042;-74
2023/08/18 12:32:09;;;;;;;1.92;1.27;;;30.40;61.10;;;;;;5009169;28;20038;-74
2023/08/18 12:34:35;;;;;;;2.10;1.60;;;30.40;61.10;;;;;;5007181;28;20057;-74
2023/08/18 12:37:00;;;;;;;2.65;1.50;;;30.40;60.90;;;;;;5005967;28;20045;-74
2023/08/18 12:39:26;;;;;;;1.83;1.48;;;30.30;60.80;;;;;;5005695;28;20389;-74
2023/08/18 12:41:53;;;;;;;1.45;1.00;;;30.30;61.10;;;;;;5009787;28;20100;-74
2023/08/18 12:44:19;;;;;;;1.60;1.17;;;30.30;61.00;;;;;;5005764;28;20409;-74
2023/08/18 12:46:44;;;;;;;1.83;1.40;;;30.40;61.20;;;;;;5021157;28;20052;-73